sensor_id;sensor_type;location;lat;lon;timestamp;P1;durP1;ratioP1;P2;durP2;ratioP2
595;SDS011;19946;49.306;11.350;2023-04-29T00:00:18;0.80;;;0.80;;
595;SDS011;19946;49.306;11.350;2023-04-29T00:03:18;1.00;;;1.00;;
595;SDS011;19946;49.306;11.350;2023-04-29T00:06:19;1.10;;;1.10;;
595;SDS011;19946;49.306;11.350;2023-04-29T00:09:20;1.10;;;1.10;;
595;SDS011;19946;49.306;11.350;2023-04-29T00:12:20;1.30;;;1.30;;
595;SDS011;19946;49.306;11.350;2023-04-29T00:15:21;1.10;;;1.10;;
595;SDS011;19946;49.306;11.350;2023-04-29T00:18:21;1.07;;;1.07;;
595;SDS011;19946;49.306;11.350;2023-04-29T00:21:21;0.80;;;0.80;;
595;SDS011;19946;49.306;11.350;2023-04-29T00:24:21;1.20;;;1.20;;
595;SDS011;19946;49.306;11.350;2023-04-29T00:27:22;1.00;;;1.00;;
595;SDS011;19946;49.306;11.350;2023-04-29T00:30:22;1.43;;;1.43;;
595;SDS011;19946;49.306;11.350;2023-04-29T00:33:22;1.40;;;1.40;;
595;SDS011;19946;49.306;11.350;2023-04-29T00:36:23;1.40;;;1.40;;
595;SDS011;19946;49.306;11.350;2023-04-29T00:39:24;1.93;;;1.93;;
595;SDS011;19946;49.306;11.350;2023-04-29T00:42:24;2.20;;;2.20;;
595;SDS011;19946;49.306;11.350;2023-04-29T00:45:25;1.87;;;1.87;;
595;SDS011;19946;49.306;11.350;2023-04-29T00:48:26;2.10;;;2.10;;
595;SDS011;19946;49.306;11.350;2023-04-29T00:51:26;2.40;;;2.40;;
595;SDS011;19946;49.306;11.350;2023-04-29T00:54:28;3.00;;;3.00;;
595;SDS011;19946;49.306;11.350;2023-04-29T00:57:28;3.90;;;3.90;;
595;SDS011;19946;49.306;11.350;2023-04-29T01:00:29;3.60;;;3.60;;
595;SDS011;19946;49.306;11.350;2023-04-29T01:03:30;3.30;;;3.30;;
595;SDS011;19946;49.306;11.350;2023-04-29T01:06:53;4.30;;;4.30;;
595;SDS011;19946;49.306;11.350;2023-04-29T01:13:08;3.90;;;3.90;;
595;SDS011;19946;49.306;11.350;2023-04-29T01:16:20;2.20;;;2.20;;
595;SDS011;19946;49.306;11.350;2023-04-29T01:20:10;2.23;;;2.23;;
595;SDS011;19946;49.306;11.350;2023-04-29T01:22:54;3.57;;;3.57;;
595;SDS011;19946;49.306;11.350;2023-04-29T01:25:55;5.20;;;5.20;;
595;SDS011;19946;49.306;11.350;2023-04-29T01:29:31;4.90;;;4.90;;
595;SDS011;19946;49.306;11.350;2023-04-29T01:36:21;4.37;;;4.37;;
595;SDS011;19946;49.306;11.350;2023-04-29T01:39:34;4.00;;;4.00;;
595;SDS011;19946;49.306;11.350;2023-04-29T01:42:47;4.90;;;4.90;;
595;SDS011;19946;49.306;11.350;2023-04-29T01:45:59;4.90;;;4.90;;
595;SDS011;19946;49.306;11.350;2023-04-29T01:49:03;5.10;;;5.10;;
595;SDS011;19946;49.306;11.350;2023-04-29T01:52:03;3.10;;;3.10;;
595;SDS011;19946;49.306;11.350;2023-04-29T01:55:05;4.20;;;4.20;;
595;SDS011;19946;49.306;11.350;2023-04-29T01:58:15;4.60;;;4.60;;
595;SDS011;19946;49.306;11.350;2023-04-29T02:01:34;8.20;;;8.10;;
595;SDS011;19946;49.306;11.350;2023-04-29T02:04:35;7.60;;;7.50;;
595;SDS011;19946;49.306;11.350;2023-04-29T02:07:36;5.30;;;5.30;;
595;SDS011;19946;49.306;11.350;2023-04-29T02:10:36;5.30;;;5.30;;
595;SDS011;19946;49.306;11.350;2023-04-29T02:13:47;7.27;;;7.17;;
595;SDS011;19946;49.306;11.350;2023-04-29T02:16:48;7.40;;;7.30;;
595;SDS011;19946;49.306;11.350;2023-04-29T02:19:50;9.90;;;9.70;;
595;SDS011;19946;49.306;11.350;2023-04-29T02:22:56;11.17;;;10.97;;
595;SDS011;19946;49.306;11.350;2023-04-29T02:25:57;9.10;;;9.00;;
595;SDS011;19946;49.306;11.350;2023-04-29T02:28:58;9.80;;;9.60;;
595;SDS011;19946;49.306;11.350;2023-04-29T02:31:58;8.43;;;8.33;;
595;SDS011;19946;49.306;11.350;2023-04-29T02:35:00;12.30;;;12.10;;
595;SDS011;19946;49.306;11.350;2023-04-29T02:38:01;12.33;;;12.13;;
595;SDS011;19946;49.306;11.350;2023-04-29T02:41:02;12.40;;;12.20;;
595;SDS011;19946;49.306;11.350;2023-04-29T02:44:02;15.20;;;14.90;;
595;SDS011;19946;49.306;11.350;2023-04-29T02:47:05;12.43;;;12.23;;
595;SDS011;19946;49.306;11.350;2023-04-29T02:50:06;15.73;;;15.43;;
595;SDS011;19946;49.306;11.350;2023-04-29T02:53:06;13.90;;;13.60;;
595;SDS011;19946;49.306;11.350;2023-04-29T02:56:07;10.50;;;10.30;;
595;SDS011;19946;49.306;11.350;2023-04-29T02:59:07;9.60;;;9.50;;
595;SDS011;19946;49.306;11.350;2023-04-29T03:02:08;8.20;;;8.10;;
595;SDS011;19946;49.306;11.350;2023-04-29T03:05:09;8.00;;;7.90;;
595;SDS011;19946;49.306;11.350;2023-04-29T03:08:09;7.73;;;7.63;;
595;SDS011;19946;49.306;11.350;2023-04-29T03:11:10;10.03;;;9.83;;
595;SDS011;19946;49.306;11.350;2023-04-29T03:14:10;10.50;;;10.30;;
595;SDS011;19946;49.306;11.350;2023-04-29T03:17:10;11.60;;;11.40;;
595;SDS011;19946;49.306;11.350;2023-04-29T03:20:11;12.50;;;12.30;;
595;SDS011;19946;49.306;11.350;2023-04-29T03:23:12;14.20;;;13.90;;
595;SDS011;19946;49.306;11.350;2023-04-29T03:26:12;16.37;;;15.97;;
595;SDS011;19946;49.306;11.350;2023-04-29T03:29:13;20.27;;;19.77;;
595;SDS011;19946;49.306;11.350;2023-04-29T03:32:13;17.27;;;16.87;;
595;SDS011;19946;49.306;11.350;2023-04-29T03:35:13;13.70;;;13.40;;
595;SDS011;19946;49.306;11.350;2023-04-29T03:38:20;13.23;;;12.93;;
595;SDS011;19946;49.306;11.350;2023-04-29T03:41:21;14.73;;;14.43;;
595;SDS011;19946;49.306;11.350;2023-04-29T03:44:23;16.30;;;15.93;;
595;SDS011;19946;49.306;11.350;2023-04-29T03:47:24;18.47;;;18.07;;
595;SDS011;19946;49.306;11.350;2023-04-29T03:50:24;20.20;;;19.70;;
595;SDS011;19946;49.306;11.350;2023-04-29T03:53:25;18.10;;;17.70;;
595;SDS011;19946;49.306;11.350;2023-04-29T03:56:25;18.37;;;17.97;;
595;SDS011;19946;49.306;11.350;2023-04-29T03:59:26;23.03;;;22.43;;
595;SDS011;19946;49.306;11.350;2023-04-29T04:02:27;19.40;;;19.00;;
595;SDS011;19946;49.306;11.350;2023-04-29T04:05:28;21.70;;;21.20;;
595;SDS011;19946;49.306;11.350;2023-04-29T04:08:34;23.83;;;23.23;;
595;SDS011;19946;49.306;11.350;2023-04-29T04:11:43;19.77;;;19.27;;
595;SDS011;19946;49.306;11.350;2023-04-29T04:14:45;21.20;;;20.70;;
595;SDS011;19946;49.306;11.350;2023-04-29T04:17:45;19.80;;;19.30;;
595;SDS011;19946;49.306;11.350;2023-04-29T04:20:45;17.90;;;17.50;;
595;SDS011;19946;49.306;11.350;2023-04-29T04:23:46;18.90;;;18.50;;
595;SDS011;19946;49.306;11.350;2023-04-29T04:26:52;16.07;;;15.77;;
595;SDS011;19946;49.306;11.350;2023-04-29T04:30:00;14.93;;;14.63;;
595;SDS011;19946;49.306;11.350;2023-04-29T04:33:05;16.00;;;15.70;;
595;SDS011;19946;49.306;11.350;2023-04-29T04:36:06;12.10;;;11.90;;
595;SDS011;19946;49.306;11.350;2023-04-29T04:39:07;12.83;;;12.63;;
595;SDS011;19946;49.306;11.350;2023-04-29T04:42:08;16.00;;;15.70;;
595;SDS011;19946;49.306;11.350;2023-04-29T04:45:09;12.20;;;12.00;;
595;SDS011;19946;49.306;11.350;2023-04-29T04:48:17;9.90;;;9.70;;
595;SDS011;19946;49.306;11.350;2023-04-29T04:51:19;9.70;;;9.60;;
595;SDS011;19946;49.306;11.350;2023-04-29T04:54:20;10.60;;;10.40;;
595;SDS011;19946;49.306;11.350;2023-04-29T04:57:24;10.80;;;10.60;;
595;SDS011;19946;49.306;11.350;2023-04-29T05:00:25;11.80;;;11.60;;
595;SDS011;19946;49.306;11.350;2023-04-29T05:03:25;10.20;;;10.00;;
595;SDS011;19946;49.306;11.350;2023-04-29T05:06:27;13.13;;;12.83;;
595;SDS011;19946;49.306;11.350;2023-04-29T05:09:28;16.40;;;16.00;;
595;SDS011;19946;49.306;11.350;2023-04-29T05:12:28;20.40;;;19.90;;
595;SDS011;19946;49.306;11.350;2023-04-29T05:15:34;17.13;;;16.73;;
595;SDS011;19946;49.306;11.350;2023-04-29T05:18:36;8.40;;;8.30;;
595;SDS011;19946;49.306;11.350;2023-04-29T05:21:36;9.20;;;9.10;;
595;SDS011;19946;49.306;11.350;2023-04-29T05:24:37;8.63;;;8.53;;
595;SDS011;19946;49.306;11.350;2023-04-29T05:27:38;10.27;;;10.07;;
595;SDS011;19946;49.306;11.350;2023-04-29T05:30:42;7.30;;;7.20;;
595;SDS011;19946;49.306;11.350;2023-04-29T05:33:43;7.97;;;7.87;;
595;SDS011;19946;49.306;11.350;2023-04-29T05:36:43;7.73;;;7.63;;
595;SDS011;19946;49.306;11.350;2023-04-29T05:39:44;9.60;;;9.50;;
595;SDS011;19946;49.306;11.350;2023-04-29T05:42:48;7.57;;;7.47;;
595;SDS011;19946;49.306;11.350;2023-04-29T05:45:48;5.50;;;5.50;;
595;SDS011;19946;49.306;11.350;2023-04-29T05:48:49;7.40;;;7.30;;
595;SDS011;19946;49.306;11.350;2023-04-29T05:51:49;6.20;;;6.10;;
595;SDS011;19946;49.306;11.350;2023-04-29T05:54:50;6.53;;;6.43;;
595;SDS011;19946;49.306;11.350;2023-04-29T05:57:50;8.10;;;8.00;;
595;SDS011;19946;49.306;11.350;2023-04-29T06:00:51;8.43;;;8.33;;
595;SDS011;19946;49.306;11.350;2023-04-29T06:03:55;7.20;;;7.10;;
595;SDS011;19946;49.306;11.350;2023-04-29T06:06:58;7.70;;;7.60;;
595;SDS011;19946;49.306;11.350;2023-04-29T06:10:15;6.50;;;6.40;;
595;SDS011;19946;49.306;11.350;2023-04-29T06:13:18;8.27;;;8.17;;
595;SDS011;19946;49.306;11.350;2023-04-29T06:16:18;5.50;;;5.50;;
595;SDS011;19946;49.306;11.350;2023-04-29T06:19:19;7.73;;;7.63;;
595;SDS011;19946;49.306;11.350;2023-04-29T06:22:21;7.40;;;7.30;;
595;SDS011;19946;49.306;11.350;2023-04-29T06:25:24;7.57;;;7.47;;
595;SDS011;19946;49.306;11.350;2023-04-29T06:28:25;6.10;;;6.00;;
595;SDS011;19946;49.306;11.350;2023-04-29T06:31:25;5.40;;;5.40;;
595;SDS011;19946;49.306;11.350;2023-04-29T06:34:28;8.07;;;7.97;;
595;SDS011;19946;49.306;11.350;2023-04-29T06:37:47;7.07;;;6.97;;
595;SDS011;19946;49.306;11.350;2023-04-29T06:41:14;5.50;;;5.50;;
595;SDS011;19946;49.306;11.350;2023-04-29T06:44:33;6.00;;;5.93;;
595;SDS011;19946;49.306;11.350;2023-04-29T06:47:52;5.13;;;5.13;;
595;SDS011;19946;49.306;11.350;2023-04-29T06:51:13;5.40;;;5.40;;
595;SDS011;19946;49.306;11.350;2023-04-29T06:54:14;6.23;;;6.13;;
595;SDS011;19946;49.306;11.350;2023-04-29T06:57:15;6.20;;;6.10;;
595;SDS011;19946;49.306;11.350;2023-04-29T07:00:17;5.50;;;5.50;;
595;SDS011;19946;49.306;11.350;2023-04-29T07:03:20;7.93;;;7.83;;
595;SDS011;19946;49.306;11.350;2023-04-29T07:06:20;7.40;;;7.30;;
595;SDS011;19946;49.306;11.350;2023-04-29T07:09:20;6.00;;;5.90;;
595;SDS011;19946;49.306;11.350;2023-04-29T07:12:22;5.20;;;5.20;;
595;SDS011;19946;49.306;11.350;2023-04-29T07:15:27;6.10;;;6.00;;
595;SDS011;19946;49.306;11.350;2023-04-29T07:18:29;6.30;;;6.20;;
595;SDS011;19946;49.306;11.350;2023-04-29T07:21:30;4.90;;;4.90;;
595;SDS011;19946;49.306;11.350;2023-04-29T07:24:31;4.83;;;4.83;;
595;SDS011;19946;49.306;11.350;2023-04-29T07:27:32;4.47;;;4.47;;
595;SDS011;19946;49.306;11.350;2023-04-29T07:30:33;4.27;;;4.27;;
595;SDS011;19946;49.306;11.350;2023-04-29T07:33:34;5.50;;;5.50;;
595;SDS011;19946;49.306;11.350;2023-04-29T07:36:35;5.10;;;5.10;;
595;SDS011;19946;49.306;11.350;2023-04-29T07:39:35;4.70;;;4.70;;
595;SDS011;19946;49.306;11.350;2023-04-29T07:42:36;5.10;;;5.10;;
595;SDS011;19946;49.306;11.350;2023-04-29T07:45:38;4.10;;;4.10;;
595;SDS011;19946;49.306;11.350;2023-04-29T07:48:39;3.70;;;3.70;;
595;SDS011;19946;49.306;11.350;2023-04-29T07:51:40;4.17;;;4.10;;
595;SDS011;19946;49.306;11.350;2023-04-29T07:54:44;3.80;;;3.80;;
595;SDS011;19946;49.306;11.350;2023-04-29T07:57:44;3.80;;;3.80;;
595;SDS011;19946;49.306;11.350;2023-04-29T08:00:45;3.37;;;3.37;;
595;SDS011;19946;49.306;11.350;2023-04-29T08:03:46;4.10;;;4.10;;
595;SDS011;19946;49.306;11.350;2023-04-29T08:06:48;3.90;;;3.90;;
595;SDS011;19946;49.306;11.350;2023-04-29T08:09:49;4.10;;;4.10;;
595;SDS011;19946;49.306;11.350;2023-04-29T08:12:49;3.30;;;3.30;;
595;SDS011;19946;49.306;11.350;2023-04-29T08:15:50;4.27;;;4.27;;
595;SDS011;19946;49.306;11.350;2023-04-29T08:18:50;4.10;;;4.10;;
595;SDS011;19946;49.306;11.350;2023-04-29T08:21:51;5.00;;;5.00;;
595;SDS011;19946;49.306;11.350;2023-04-29T08:24:52;4.57;;;4.57;;
595;SDS011;19946;49.306;11.350;2023-04-29T08:27:52;5.10;;;5.10;;
595;SDS011;19946;49.306;11.350;2023-04-29T08:30:52;5.70;;;5.60;;
595;SDS011;19946;49.306;11.350;2023-04-29T08:33:53;4.70;;;4.70;;
595;SDS011;19946;49.306;11.350;2023-04-29T08:36:53;4.20;;;4.20;;
595;SDS011;19946;49.306;11.350;2023-04-29T08:39:54;5.63;;;5.63;;
595;SDS011;19946;49.306;11.350;2023-04-29T08:42:54;6.20;;;6.10;;
595;SDS011;19946;49.306;11.350;2023-04-29T08:45:56;4.63;;;4.63;;
595;SDS011;19946;49.306;11.350;2023-04-29T08:48:57;4.10;;;4.10;;
595;SDS011;19946;49.306;11.350;2023-04-29T08:52:00;3.70;;;3.70;;
595;SDS011;19946;49.306;11.350;2023-04-29T08:55:01;4.30;;;4.30;;
595;SDS011;19946;49.306;11.350;2023-04-29T08:58:02;4.10;;;4.10;;
595;SDS011;19946;49.306;11.350;2023-04-29T09:01:06;4.50;;;4.50;;
595;SDS011;19946;49.306;11.350;2023-04-29T09:04:29;4.43;;;4.43;;
595;SDS011;19946;49.306;11.350;2023-04-29T09:07:40;4.07;;;4.07;;
595;SDS011;19946;49.306;11.350;2023-04-29T09:10:42;5.37;;;5.37;;
595;SDS011;19946;49.306;11.350;2023-04-29T09:13:42;4.80;;;4.80;;
595;SDS011;19946;49.306;11.350;2023-04-29T09:16:46;5.97;;;5.87;;
595;SDS011;19946;49.306;11.350;2023-04-29T09:19:46;5.00;;;5.00;;
595;SDS011;19946;49.306;11.350;2023-04-29T09:22:47;4.50;;;4.50;;
595;SDS011;19946;49.306;11.350;2023-04-29T09:25:55;4.73;;;4.73;;
595;SDS011;19946;49.306;11.350;2023-04-29T09:29:06;3.57;;;3.57;;
595;SDS011;19946;49.306;11.350;2023-04-29T09:32:18;3.60;;;3.60;;
595;SDS011;19946;49.306;11.350;2023-04-29T09:35:23;4.60;;;4.60;;
595;SDS011;19946;49.306;11.350;2023-04-29T09:38:25;3.80;;;3.80;;
595;SDS011;19946;49.306;11.350;2023-04-29T09:41:25;4.10;;;4.10;;
595;SDS011;19946;49.306;11.350;2023-04-29T09:44:26;4.33;;;4.33;;
595;SDS011;19946;49.306;11.350;2023-04-29T09:47:29;3.90;;;3.90;;
595;SDS011;19946;49.306;11.350;2023-04-29T09:50:32;4.00;;;4.00;;
595;SDS011;19946;49.306;11.350;2023-04-29T09:53:35;3.80;;;3.80;;
595;SDS011;19946;49.306;11.350;2023-04-29T09:56:47;3.70;;;3.70;;
595;SDS011;19946;49.306;11.350;2023-04-29T09:59:49;3.50;;;3.50;;
595;SDS011;19946;49.306;11.350;2023-04-29T10:02:49;3.80;;;3.80;;
595;SDS011;19946;49.306;11.350;2023-04-29T10:05:50;3.60;;;3.60;;
595;SDS011;19946;49.306;11.350;2023-04-29T10:08:51;3.50;;;3.50;;
595;SDS011;19946;49.306;11.350;2023-04-29T10:11:51;3.30;;;3.30;;
595;SDS011;19946;49.306;11.350;2023-04-29T10:14:54;4.47;;;4.47;;
595;SDS011;19946;49.306;11.350;2023-04-29T10:18:11;4.17;;;4.17;;
595;SDS011;19946;49.306;11.350;2023-04-29T10:21:16;3.40;;;3.40;;
595;SDS011;19946;49.306;11.350;2023-04-29T10:24:21;3.87;;;3.87;;
595;SDS011;19946;49.306;11.350;2023-04-29T10:27:22;3.80;;;3.80;;
595;SDS011;19946;49.306;11.350;2023-04-29T10:30:23;3.40;;;3.40;;
595;SDS011;19946;49.306;11.350;2023-04-29T10:33:24;4.10;;;4.10;;
595;SDS011;19946;49.306;11.350;2023-04-29T10:36:27;3.80;;;3.80;;
595;SDS011;19946;49.306;11.350;2023-04-29T10:39:33;4.10;;;4.10;;
595;SDS011;19946;49.306;11.350;2023-04-29T10:45:46;3.80;;;3.80;;
595;SDS011;19946;49.306;11.350;2023-04-29T10:48:46;3.90;;;3.90;;
595;SDS011;19946;49.306;11.350;2023-04-29T10:51:51;3.37;;;3.37;;
595;SDS011;19946;49.306;11.350;2023-04-29T10:55:03;3.80;;;3.80;;
595;SDS011;19946;49.306;11.350;2023-04-29T10:58:04;3.80;;;3.80;;
595;SDS011;19946;49.306;11.350;2023-04-29T11:01:06;4.07;;;4.07;;
595;SDS011;19946;49.306;11.350;2023-04-29T11:04:09;3.83;;;3.83;;
595;SDS011;19946;49.306;11.350;2023-04-29T11:07:10;3.67;;;3.67;;
595;SDS011;19946;49.306;11.350;2023-04-29T11:10:34;3.40;;;3.40;;
595;SDS011;19946;49.306;11.350;2023-04-29T11:13:39;3.30;;;3.30;;
595;SDS011;19946;49.306;11.350;2023-04-29T11:16:46;3.20;;;3.20;;
595;SDS011;19946;49.306;11.350;2023-04-29T11:19:51;2.80;;;2.80;;
595;SDS011;19946;49.306;11.350;2023-04-29T11:22:52;2.80;;;2.80;;
595;SDS011;19946;49.306;11.350;2023-04-29T11:25:58;3.30;;;3.30;;
595;SDS011;19946;49.306;11.350;2023-04-29T11:28:58;3.00;;;3.00;;
595;SDS011;19946;49.306;11.350;2023-04-29T11:32:03;3.50;;;3.50;;
595;SDS011;19946;49.306;11.350;2023-04-29T11:35:14;3.57;;;3.47;;
595;SDS011;19946;49.306;11.350;2023-04-29T11:38:15;3.03;;;3.03;;
595;SDS011;19946;49.306;11.350;2023-04-29T11:41:16;3.17;;;3.17;;
595;SDS011;19946;49.306;11.350;2023-04-29T11:44:20;3.13;;;3.13;;
595;SDS011;19946;49.306;11.350;2023-04-29T11:47:28;3.40;;;3.40;;
595;SDS011;19946;49.306;11.350;2023-04-29T11:50:30;3.40;;;3.40;;
595;SDS011;19946;49.306;11.350;2023-04-29T11:53:31;3.30;;;3.30;;
595;SDS011;19946;49.306;11.350;2023-04-29T11:56:35;3.27;;;3.27;;
595;SDS011;19946;49.306;11.350;2023-04-29T11:59:43;3.20;;;3.20;;
595;SDS011;19946;49.306;11.350;2023-04-29T12:03:15;2.93;;;2.93;;
595;SDS011;19946;49.306;11.350;2023-04-29T12:06:32;2.83;;;2.83;;
595;SDS011;19946;49.306;11.350;2023-04-29T12:09:45;2.50;;;2.50;;
595;SDS011;19946;49.306;11.350;2023-04-29T12:12:50;2.50;;;2.50;;
595;SDS011;19946;49.306;11.350;2023-04-29T12:15:51;2.83;;;2.80;;
595;SDS011;19946;49.306;11.350;2023-04-29T12:18:53;2.70;;;2.70;;
595;SDS011;19946;49.306;11.350;2023-04-29T12:21:59;2.60;;;2.60;;
595;SDS011;19946;49.306;11.350;2023-04-29T12:25:05;2.70;;;2.70;;
595;SDS011;19946;49.306;11.350;2023-04-29T12:28:13;2.73;;;2.73;;
595;SDS011;19946;49.306;11.350;2023-04-29T12:31:14;3.03;;;3.03;;
595;SDS011;19946;49.306;11.350;2023-04-29T12:34:17;2.73;;;2.73;;
595;SDS011;19946;49.306;11.350;2023-04-29T12:37:24;2.80;;;2.80;;
595;SDS011;19946;49.306;11.350;2023-04-29T12:40:25;3.10;;;3.10;;
595;SDS011;19946;49.306;11.350;2023-04-29T12:43:28;2.90;;;2.90;;
595;SDS011;19946;49.306;11.350;2023-04-29T12:46:37;2.80;;;2.80;;
595;SDS011;19946;49.306;11.350;2023-04-29T12:49:43;2.83;;;2.83;;
595;SDS011;19946;49.306;11.350;2023-04-29T12:52:48;2.77;;;2.77;;
595;SDS011;19946;49.306;11.350;2023-04-29T12:55:53;2.40;;;2.40;;
595;SDS011;19946;49.306;11.350;2023-04-29T12:58:55;2.10;;;2.10;;
595;SDS011;19946;49.306;11.350;2023-04-29T13:01:57;2.50;;;2.50;;
595;SDS011;19946;49.306;11.350;2023-04-29T13:05:02;2.40;;;2.40;;
595;SDS011;19946;49.306;11.350;2023-04-29T13:08:07;2.20;;;2.20;;
595;SDS011;19946;49.306;11.350;2023-04-29T13:11:08;2.20;;;2.20;;
595;SDS011;19946;49.306;11.350;2023-04-29T13:14:13;2.00;;;2.00;;
595;SDS011;19946;49.306;11.350;2023-04-29T13:17:15;2.00;;;2.00;;
595;SDS011;19946;49.306;11.350;2023-04-29T13:20:19;1.90;;;1.90;;
595;SDS011;19946;49.306;11.350;2023-04-29T13:23:24;1.93;;;1.93;;
595;SDS011;19946;49.306;11.350;2023-04-29T13:26:25;2.10;;;2.10;;
595;SDS011;19946;49.306;11.350;2023-04-29T13:29:31;2.07;;;2.07;;
595;SDS011;19946;49.306;11.350;2023-04-29T13:32:34;2.13;;;2.13;;
595;SDS011;19946;49.306;11.350;2023-04-29T13:35:35;2.03;;;2.03;;
595;SDS011;19946;49.306;11.350;2023-04-29T13:38:44;2.00;;;2.00;;
595;SDS011;19946;49.306;11.350;2023-04-29T13:41:45;1.80;;;1.80;;
595;SDS011;19946;49.306;11.350;2023-04-29T13:45:37;2.00;;;2.00;;
595;SDS011;19946;49.306;11.350;2023-04-29T13:48:39;1.80;;;1.80;;
595;SDS011;19946;49.306;11.350;2023-04-29T13:51:40;1.80;;;1.80;;
595;SDS011;19946;49.306;11.350;2023-04-29T13:54:41;1.93;;;1.93;;
595;SDS011;19946;49.306;11.350;2023-04-29T13:57:43;1.90;;;1.90;;
595;SDS011;19946;49.306;11.350;2023-04-29T14:00:48;2.00;;;2.00;;
595;SDS011;19946;49.306;11.350;2023-04-29T14:03:50;2.00;;;2.00;;
595;SDS011;19946;49.306;11.350;2023-04-29T14:06:53;1.80;;;1.80;;
595;SDS011;19946;49.306;11.350;2023-04-29T14:09:58;2.00;;;2.00;;
595;SDS011;19946;49.306;11.350;2023-04-29T14:13:06;2.00;;;2.00;;
595;SDS011;19946;49.306;11.350;2023-04-29T14:16:07;2.07;;;2.07;;
595;SDS011;19946;49.306;11.350;2023-04-29T14:19:08;2.00;;;2.00;;
595;SDS011;19946;49.306;11.350;2023-04-29T14:22:13;2.30;;;2.30;;
595;SDS011;19946;49.306;11.350;2023-04-29T14:25:14;2.20;;;2.20;;
595;SDS011;19946;49.306;11.350;2023-04-29T14:28:17;2.40;;;2.40;;
595;SDS011;19946;49.306;11.350;2023-04-29T14:31:19;2.40;;;2.40;;
595;SDS011;19946;49.306;11.350;2023-04-29T14:34:21;2.20;;;2.20;;
595;SDS011;19946;49.306;11.350;2023-04-29T14:37:23;1.97;;;1.97;;
595;SDS011;19946;49.306;11.350;2023-04-29T14:40:28;2.00;;;2.00;;
595;SDS011;19946;49.306;11.350;2023-04-29T14:43:30;2.97;;;2.97;;
595;SDS011;19946;49.306;11.350;2023-04-29T14:46:37;1.80;;;1.80;;
595;SDS011;19946;49.306;11.350;2023-04-29T14:49:38;1.80;;;1.80;;
595;SDS011;19946;49.306;11.350;2023-04-29T14:52:41;1.50;;;1.50;;
595;SDS011;19946;49.306;11.350;2023-04-29T14:55:49;1.40;;;1.40;;
595;SDS011;19946;49.306;11.350;2023-04-29T15:00:17;1.80;;;1.80;;
595;SDS011;19946;49.306;11.350;2023-04-29T15:03:21;1.60;;;1.60;;
595;SDS011;19946;49.306;11.350;2023-04-29T15:06:22;1.70;;;1.70;;
595;SDS011;19946;49.306;11.350;2023-04-29T15:09:23;2.43;;;2.33;;
595;SDS011;19946;49.306;11.350;2023-04-29T15:12:26;1.60;;;1.60;;
595;SDS011;19946;49.306;11.350;2023-04-29T15:15:36;1.80;;;1.80;;
595;SDS011;19946;49.306;11.350;2023-04-29T15:18:36;1.40;;;1.40;;
595;SDS011;19946;49.306;11.350;2023-04-29T15:21:37;1.50;;;1.50;;
595;SDS011;19946;49.306;11.350;2023-04-29T15:24:40;1.67;;;1.67;;
595;SDS011;19946;49.306;11.350;2023-04-29T15:27:44;1.30;;;1.30;;
595;SDS011;19946;49.306;11.350;2023-04-29T15:30:45;1.20;;;1.20;;
595;SDS011;19946;49.306;11.350;2023-04-29T15:33:46;1.10;;;1.10;;
595;SDS011;19946;49.306;11.350;2023-04-29T15:36:48;1.00;;;1.00;;
595;SDS011;19946;49.306;11.350;2023-04-29T15:39:50;1.10;;;1.10;;
595;SDS011;19946;49.306;11.350;2023-04-29T15:42:50;1.10;;;1.10;;
595;SDS011;19946;49.306;11.350;2023-04-29T15:45:51;1.10;;;1.10;;
595;SDS011;19946;49.306;11.350;2023-04-29T15:48:52;1.20;;;1.20;;
595;SDS011;19946;49.306;11.350;2023-04-29T15:51:52;1.20;;;1.20;;
595;SDS011;19946;49.306;11.350;2023-04-29T15:54:53;1.20;;;1.20;;
595;SDS011;19946;49.306;11.350;2023-04-29T15:57:53;1.20;;;1.20;;
595;SDS011;19946;49.306;11.350;2023-04-29T16:00:54;1.30;;;1.30;;
595;SDS011;19946;49.306;11.350;2023-04-29T16:03:55;1.30;;;1.30;;
595;SDS011;19946;49.306;11.350;2023-04-29T16:06:56;1.20;;;1.20;;
595;SDS011;19946;49.306;11.350;2023-04-29T16:09:57;1.10;;;1.10;;
595;SDS011;19946;49.306;11.350;2023-04-29T16:12:58;1.10;;;1.10;;
595;SDS011;19946;49.306;11.350;2023-04-29T16:15:59;1.13;;;1.13;;
595;SDS011;19946;49.306;11.350;2023-04-29T16:19:00;1.00;;;1.00;;
595;SDS011;19946;49.306;11.350;2023-04-29T16:22:01;0.80;;;0.80;;
595;SDS011;19946;49.306;11.350;2023-04-29T16:25:01;0.90;;;0.90;;
595;SDS011;19946;49.306;11.350;2023-04-29T16:28:04;1.00;;;1.00;;
595;SDS011;19946;49.306;11.350;2023-04-29T16:31:06;1.00;;;1.00;;
595;SDS011;19946;49.306;11.350;2023-04-29T16:34:06;1.10;;;1.10;;
595;SDS011;19946;49.306;11.350;2023-04-29T16:37:07;1.00;;;1.00;;
595;SDS011;19946;49.306;11.350;2023-04-29T16:40:11;0.90;;;0.90;;
595;SDS011;19946;49.306;11.350;2023-04-29T16:43:12;1.00;;;1.00;;
595;SDS011;19946;49.306;11.350;2023-04-29T16:46:14;1.00;;;1.00;;
595;SDS011;19946;49.306;11.350;2023-04-29T16:49:15;0.90;;;0.90;;
595;SDS011;19946;49.306;11.350;2023-04-29T16:52:23;1.07;;;1.07;;
595;SDS011;19946;49.306;11.350;2023-04-29T16:55:24;1.10;;;1.10;;
595;SDS011;19946;49.306;11.350;2023-04-29T16:58:25;1.33;;;1.33;;
595;SDS011;19946;49.306;11.350;2023-04-29T17:01:29;1.00;;;1.00;;
595;SDS011;19946;49.306;11.350;2023-04-29T17:04:32;1.00;;;1.00;;
595;SDS011;19946;49.306;11.350;2023-04-29T17:07:35;1.00;;;1.00;;
595;SDS011;19946;49.306;11.350;2023-04-29T17:10:38;1.20;;;1.20;;
595;SDS011;19946;49.306;11.350;2023-04-29T17:13:43;1.10;;;1.10;;
595;SDS011;19946;49.306;11.350;2023-04-29T17:16:46;1.00;;;1.00;;
595;SDS011;19946;49.306;11.350;2023-04-29T17:19:48;1.20;;;1.20;;
595;SDS011;19946;49.306;11.350;2023-04-29T17:23:02;1.10;;;1.10;;
595;SDS011;19946;49.306;11.350;2023-04-29T17:26:04;1.00;;;1.00;;
595;SDS011;19946;49.306;11.350;2023-04-29T17:29:06;1.50;;;1.50;;
595;SDS011;19946;49.306;11.350;2023-04-29T17:32:08;1.10;;;1.10;;
595;SDS011;19946;49.306;11.350;2023-04-29T17:35:18;1.07;;;1.07;;
595;SDS011;19946;49.306;11.350;2023-04-29T17:38:19;1.17;;;1.17;;
595;SDS011;19946;49.306;11.350;2023-04-29T17:41:23;0.87;;;0.87;;
595;SDS011;19946;49.306;11.350;2023-04-29T17:44:24;0.87;;;0.87;;
595;SDS011;19946;49.306;11.350;2023-04-29T17:47:24;0.90;;;0.90;;
595;SDS011;19946;49.306;11.350;2023-04-29T17:50:25;0.97;;;0.97;;
595;SDS011;19946;49.306;11.350;2023-04-29T17:53:25;0.80;;;0.80;;
595;SDS011;19946;49.306;11.350;2023-04-29T17:56:27;0.80;;;0.80;;
595;SDS011;19946;49.306;11.350;2023-04-29T17:59:28;0.80;;;0.80;;
595;SDS011;19946;49.306;11.350;2023-04-29T18:02:30;0.90;;;0.90;;
595;SDS011;19946;49.306;11.350;2023-04-29T18:05:30;0.80;;;0.80;;
595;SDS011;19946;49.306;11.350;2023-04-29T18:08:32;0.80;;;0.80;;
595;SDS011;19946;49.306;11.350;2023-04-29T18:11:35;0.80;;;0.80;;
595;SDS011;19946;49.306;11.350;2023-04-29T18:14:38;0.80;;;0.80;;
595;SDS011;19946;49.306;11.350;2023-04-29T18:17:41;0.80;;;0.80;;
595;SDS011;19946;49.306;11.350;2023-04-29T18:20:42;0.60;;;0.60;;
595;SDS011;19946;49.306;11.350;2023-04-29T18:23:43;0.80;;;0.80;;
595;SDS011;19946;49.306;11.350;2023-04-29T18:26:43;0.70;;;0.70;;
595;SDS011;19946;49.306;11.350;2023-04-29T18:29:51;0.80;;;0.80;;
595;SDS011;19946;49.306;11.350;2023-04-29T18:32:52;0.70;;;0.70;;
595;SDS011;19946;49.306;11.350;2023-04-29T18:39:22;0.70;;;0.70;;
595;SDS011;19946;49.306;11.350;2023-04-29T18:42:24;1.00;;;1.00;;
595;SDS011;19946;49.306;11.350;2023-04-29T18:45:26;0.87;;;0.87;;
595;SDS011;19946;49.306;11.350;2023-04-29T18:51:45;0.80;;;0.80;;
595;SDS011;19946;49.306;11.350;2023-04-29T18:54:50;0.80;;;0.80;;